sensor_id;sensor_type;location;lat;lon;timestamp;pressure;altitude;pressure_sealevel;temperature;humidity
50322;BME280;36227;53.366;-1.426;2023-05-24T00:01:00;76591.72;;;-215.39;100.00
50322;BME280;36227;53.366;-1.426;2023-05-24T00:03:26;76550.15;;;-215.63;100.00
50322;BME280;36227;53.366;-1.426;2023-05-24T00:05:51;76663.87;;;-215.39;100.00
50322;BME280;36227;53.366;-1.426;2023-05-24T00:08:17;76713.66;;;-215.39;100.00
50322;BME280;36227;53.366;-1.426;2023-05-24T00:10:42;76620.53;;;-215.39;100.00
50322;BME280;36227;53.366;-1.426;2023-05-24T00:13:08;76741.83;;;-215.15;100.00
50322;BME280;36227;53.366;-1.426;2023-05-24T00:15:33;76764.96;;;-214.91;100.00
50322;BME280;36227;53.366;-1.426;2023-05-24T00:17:59;76677.90;;;-215.39;100.00
50322;BME280;36227;53.366;-1.426;2023-05-24T00:20:24;76670.69;;;-215.87;100.00
50322;BME280;36227;53.366;-1.426;2023-05-24T00:22:49;76644.16;;;-215.39;100.00
50322;BME280;36227;53.366;-1.426;2023-05-24T00:25:15;76716.81;;;-215.15;100.00
50322;BME280;36227;53.366;-1.426;2023-05-24T00:27:40;76755.74;;;-214.91;100.00
50322;BME280;36227;53.366;-1.426;2023-05-24T00:30:06;76786.95;;;-214.91;100.00
50322;BME280;36227;53.366;-1.426;2023-05-24T00:32:30;76695.33;;;-215.15;100.00
50322;BME280;36227;53.366;-1.426;2023-05-24T00:34:56;76728.69;;;-214.91;100.00
50322;BME280;36227;53.366;-1.426;2023-05-24T00:37:21;76761.42;;;-214.91;100.00
50322;BME280;36227;53.366;-1.426;2023-05-24T00:39:47;76700.64;;;-215.63;100.00
50322;BME280;36227;53.366;-1.426;2023-05-24T00:42:12;76677.01;;;-215.87;100.00
50322;BME280;36227;53.366;-1.426;2023-05-24T00:44:38;76620.65;;;-215.63;100.00
50322;BME280;36227;53.366;-1.426;2023-05-24T00:47:03;76720.86;;;-215.15;100.00
50322;BME280;36227;53.366;-1.426;2023-05-24T00:49:28;76626.85;;;-215.39;100.00
50322;BME280;36227;53.366;-1.426;2023-05-24T00:51:54;76679.16;;;-215.15;100.00
50322;BME280;36227;53.366;-1.426;2023-05-24T00:54:19;76633.80;;;-214.91;100.00
50322;BME280;36227;53.366;-1.426;2023-05-24T00:56:45;76671.20;;;-215.39;100.00
50322;BME280;36227;53.366;-1.426;2023-05-24T00:59:10;76709.36;;;-214.91;100.00
50322;BME280;36227;53.366;-1.426;2023-05-24T01:01:36;76675.75;;;-215.39;100.00
50322;BME280;36227;53.366;-1.426;2023-05-24T01:04:01;76735.77;;;-215.39;100.00
50322;BME280;36227;53.366;-1.426;2023-05-24T01:06:27;76808.68;;;-214.91;100.00
50322;BME280;36227;53.366;-1.426;2023-05-24T01:09:05;76754.85;;;-215.15;100.00
50322;BME280;36227;53.366;-1.426;2023-05-24T01:11:25;76727.05;;;-214.91;100.00
50322;BME280;36227;53.366;-1.426;2023-05-24T01:13:45;76682.19;;;-215.39;100.00
50322;BME280;36227;53.366;-1.426;2023-05-24T01:16:11;76618.00;;;-215.15;100.00
50322;BME280;36227;53.366;-1.426;2023-05-24T01:18:38;76561.26;;;-215.39;100.00
50322;BME280;36227;53.366;-1.426;2023-05-24T01:21:07;76552.17;;;-215.39;100.00
50322;BME280;36227;53.366;-1.426;2023-05-24T01:23:33;76602.84;;;-214.91;100.00
50322;BME280;36227;53.366;-1.426;2023-05-24T01:28:16;76591.09;;;-215.63;100.00
50322;BME280;36227;53.366;-1.426;2023-05-24T01:30:40;76669.68;;;-215.39;100.00
50322;BME280;36227;53.366;-1.426;2023-05-24T01:59:47;76753.08;;;-214.91;100.00
50322;BME280;36227;53.366;-1.426;2023-05-24T02:21:53;76764.96;;;-215.15;100.00
50322;BME280;36227;53.366;-1.426;2023-05-24T02:24:00;76754.98;;;-215.15;100.00
50322;BME280;36227;53.366;-1.426;2023-05-24T02:26:31;76767.74;;;-215.15;100.00
50322;BME280;36227;53.366;-1.426;2023-05-24T02:28:51;76734.38;;;-215.39;100.00
50322;BME280;36227;53.366;-1.426;2023-05-24T02:31:17;76674.23;;;-216.11;100.00
50322;BME280;36227;53.366;-1.426;2023-05-24T02:33:41;76820.56;;;-215.39;100.00
50322;BME280;36227;53.366;-1.426;2023-05-24T02:36:07;76727.30;;;-215.39;100.00
50322;BME280;36227;53.366;-1.426;2023-05-24T02:38:32;76735.26;;;-215.39;100.00
50322;BME280;36227;53.366;-1.426;2023-05-24T02:40:57;76740.57;;;-215.39;100.00
50322;BME280;36227;53.366;-1.426;2023-05-24T02:45:48;76700.14;;;-215.39;100.00
50322;BME280;36227;53.366;-1.426;2023-05-24T02:48:13;76698.62;;;-215.39;100.00
50322;BME280;36227;53.366;-1.426;2023-05-24T02:50:38;76749.42;;;-215.39;100.00
50322;BME280;36227;53.366;-1.426;2023-05-24T02:53:05;76808.93;;;-215.39;100.00
50322;BME280;36227;53.366;-1.426;2023-05-24T02:55:30;76660.20;;;-216.35;100.00
50322;BME280;36227;53.366;-1.426;2023-05-24T02:57:55;76701.53;;;-215.87;100.00
50322;BME280;36227;53.366;-1.426;2023-05-24T03:00:20;76627.60;;;-215.87;100.00
50322;BME280;36227;53.366;-1.426;2023-05-24T03:36:43;76646.68;;;-215.39;100.00
50322;BME280;36227;53.366;-1.426;2023-05-24T03:39:08;76694.07;;;-215.87;100.00
50322;BME280;36227;53.366;-1.426;2023-05-24T03:41:33;76712.14;;;-215.39;100.00
50322;BME280;36227;53.366;-1.426;2023-05-24T03:44:04;76688.00;;;-215.15;100.00
50322;BME280;36227;53.366;-1.426;2023-05-24T03:46:24;76665.13;;;-215.39;100.00
50322;BME280;36227;53.366;-1.426;2023-05-24T03:48:49;76595.26;;;-215.39;100.00
50322;BME280;36227;53.366;-1.426;2023-05-24T03:58:31;76656.79;;;-215.15;100.00
50322;BME280;36227;53.366;-1.426;2023-05-24T04:00:57;76579.33;;;-215.63;100.00
50322;BME280;36227;53.366;-1.426;2023-05-24T04:03:22;76713.15;;;-215.87;100.00
50322;BME280;36227;53.366;-1.426;2023-05-24T04:05:47;76686.87;;;-215.63;100.00
50322;BME280;36227;53.366;-1.426;2023-05-24T04:08:13;76621.66;;;-215.39;100.00
50322;BME280;36227;53.366;-1.426;2023-05-24T04:20:27;76679.54;;;-215.87;100.00
50322;BME280;36227;53.366;-1.426;2023-05-24T04:25:12;76645.17;;;-216.83;100.00
50322;BME280;36227;53.366;-1.426;2023-05-24T04:30:08;76719.59;;;-215.87;100.00
50322;BME280;36227;53.366;-1.426;2023-05-24T04:32:27;76700.51;;;-215.87;100.00
50322;BME280;36227;53.366;-1.426;2023-05-24T04:34:53;76659.07;;;-215.87;100.00
50322;BME280;36227;53.366;-1.426;2023-05-24T04:37:18;76602.33;;;-215.87;100.00
50322;BME280;36227;53.366;-1.426;2023-05-24T04:39:44;76624.70;;;-215.87;100.00
50322;BME280;36227;53.366;-1.426;2023-05-24T04:42:09;76517.04;;;-216.11;100.00
50322;BME280;36227;53.366;-1.426;2023-05-24T04:44:35;76492.91;;;-216.35;100.00
50322;BME280;36227;53.366;-1.426;2023-05-24T04:47:01;76404.20;;;-216.83;100.00
50322;BME280;36227;53.366;-1.426;2023-05-24T04:49:25;76490.76;;;-216.35;100.00
50322;BME280;36227;53.366;-1.426;2023-05-24T04:51:51;76580.09;;;-216.11;100.00
50322;BME280;36227;53.366;-1.426;2023-05-24T04:54:16;76497.71;;;-216.35;100.00
50322;BME280;36227;53.366;-1.426;2023-05-24T04:56:42;76616.86;;;-216.11;100.00
50322;BME280;36227;53.366;-1.426;2023-05-24T04:59:07;76486.08;;;-216.11;100.00
50322;BME280;36227;53.366;-1.426;2023-05-24T05:01:33;76412.16;;;-216.59;100.00
50322;BME280;36227;53.366;-1.426;2023-05-24T05:03:59;76421.77;;;-216.35;100.00
50322;BME280;36227;53.366;-1.426;2023-05-24T05:06:25;76460.56;;;-216.59;100.00
50322;BME280;36227;53.366;-1.426;2023-05-24T05:08:50;76414.19;;;-217.07;100.00
50322;BME280;36227;53.366;-1.426;2023-05-24T05:11:15;76406.23;;;-216.83;100.00
50322;BME280;36227;53.366;-1.426;2023-05-24T05:13:40;76434.53;;;-216.83;100.00
50322;BME280;36227;53.366;-1.426;2023-05-24T05:16:06;76406.10;;;-216.59;100.00
50322;BME280;36227;53.366;-1.426;2023-05-24T05:18:31;76544.08;;;-216.35;100.00
50322;BME280;36227;53.366;-1.426;2023-05-24T05:20:57;76504.78;;;-216.35;100.00
50322;BME280;36227;53.366;-1.426;2023-05-24T05:25:49;76530.69;;;-216.11;100.00
50322;BME280;36227;53.366;-1.426;2023-05-24T05:28:13;76591.46;;;-215.87;100.00
50322;BME280;36227;53.366;-1.426;2023-05-24T05:30:39;76538.90;;;-215.87;100.00
50322;BME280;36227;53.366;-1.426;2023-05-24T05:33:04;76426.95;;;-216.83;100.00
50322;BME280;36227;53.366;-1.426;2023-05-24T05:35:29;76428.59;;;-216.35;100.00
50322;BME280;36227;53.366;-1.426;2023-05-24T05:37:54;76398.90;;;-216.11;100.00
50322;BME280;36227;53.366;-1.426;2023-05-24T05:40:19;76512.49;;;-215.87;100.00
50322;BME280;36227;53.366;-1.426;2023-05-24T05:42:45;76509.46;;;-215.87;100.00
50322;BME280;36227;53.366;-1.426;2023-05-24T05:45:11;76470.54;;;-215.87;100.00
50322;BME280;36227;53.366;-1.426;2023-05-24T05:47:37;76557.60;;;-215.87;100.00
50322;BME280;36227;53.366;-1.426;2023-05-24T05:50:02;76525.88;;;-215.87;100.00
50322;BME280;36227;53.366;-1.426;2023-05-24T05:52:27;76633.80;;;-215.39;100.00
50322;BME280;36227;53.366;-1.426;2023-05-24T05:54:53;76690.53;;;-215.87;100.00
50322;BME280;36227;53.366;-1.426;2023-05-24T05:57:18;76596.39;;;-216.11;100.00
50322;BME280;36227;53.366;-1.426;2023-05-24T05:59:43;76600.18;;;-215.87;100.00
50322;BME280;36227;53.366;-1.426;2023-05-24T06:02:08;76548.25;;;-215.87;100.00
50322;BME280;36227;53.366;-1.426;2023-05-24T06:04:34;76568.72;;;-215.87;100.00
50322;BME280;36227;53.366;-1.426;2023-05-24T06:06:59;76516.41;;;-215.63;100.00
50322;BME280;36227;53.366;-1.426;2023-05-24T06:09:24;76598.67;;;-215.39;100.00
50322;BME280;36227;53.366;-1.426;2023-05-24T06:11:50;76567.96;;;-215.39;100.00
50322;BME280;36227;53.366;-1.426;2023-05-24T06:14:15;76453.74;;;-215.87;100.00
50322;BME280;36227;53.366;-1.426;2023-05-24T06:16:41;76562.02;;;-215.87;100.00
50322;BME280;36227;53.366;-1.426;2023-05-24T06:19:06;76579.46;;;-216.35;100.00
50322;BME280;36227;53.366;-1.426;2023-05-24T06:21:30;76437.56;;;-216.35;100.00
50322;BME280;36227;53.366;-1.426;2023-05-24T06:23:55;76614.97;;;-215.87;100.00
50322;BME280;36227;53.366;-1.426;2023-05-24T06:26:21;76625.33;;;-215.39;100.00
50322;BME280;36227;53.366;-1.426;2023-05-24T06:28:46;76625.08;;;-215.63;100.00
50322;BME280;36227;53.366;-1.426;2023-05-24T06:31:12;76509.84;;;-215.63;100.00
50322;BME280;36227;53.366;-1.426;2023-05-24T06:33:38;76468.39;;;-215.87;100.00
50322;BME280;36227;53.366;-1.426;2023-05-24T06:36:03;76512.62;;;-215.87;100.00
50322;BME280;36227;53.366;-1.426;2023-05-24T06:38:28;76526.14;;;-215.39;100.00
50322;BME280;36227;53.366;-1.426;2023-05-24T06:40:54;76558.74;;;-216.11;100.00
50322;BME280;36227;53.366;-1.426;2023-05-24T06:43:19;76535.61;;;-216.11;100.00
50322;BME280;36227;53.366;-1.426;2023-05-24T06:45:44;76555.45;;;-215.87;100.00
50322;BME280;36227;53.366;-1.426;2023-05-24T06:48:09;76593.99;;;-215.63;100.00
50322;BME280;36227;53.366;-1.426;2023-05-24T06:50:36;76595.89;;;-215.39;100.00
50322;BME280;36227;53.366;-1.426;2023-05-24T06:53:00;76623.81;;;-215.15;100.00
50322;BME280;36227;53.366;-1.426;2023-05-24T06:55:25;76543.83;;;-215.39;100.00
50322;BME280;36227;53.366;-1.426;2023-05-24T06:57:51;76483.18;;;-215.63;100.00
50322;BME280;36227;53.366;-1.426;2023-05-24T07:00:17;76496.19;;;-215.87;100.00
50322;BME280;36227;53.366;-1.426;2023-05-24T07:02:42;76479.51;;;-215.87;100.00
50322;BME280;36227;53.366;-1.426;2023-05-24T07:05:08;76438.57;;;-216.59;100.00
50322;BME280;36227;53.366;-1.426;2023-05-24T07:07:32;76555.20;;;-216.11;100.00
50322;BME280;36227;53.366;-1.426;2023-05-24T07:09:57;76439.96;;;-216.35;100.00
50322;BME280;36227;53.366;-1.426;2023-05-24T07:12:23;76510.85;;;-216.11;100.00
50322;BME280;36227;53.366;-1.426;2023-05-24T07:14:48;76510.22;;;-215.39;100.00
50322;BME280;36227;53.366;-1.426;2023-05-24T07:17:13;76410.14;;;-215.87;100.00
50322;BME280;36227;53.366;-1.426;2023-05-24T07:19:38;76419.87;;;-215.87;100.00
50322;BME280;36227;53.366;-1.426;2023-05-24T07:22:03;76512.87;;;-215.87;100.00
50322;BME280;36227;53.366;-1.426;2023-05-24T07:24:28;76437.94;;;-215.87;100.00
50322;BME280;36227;53.366;-1.426;2023-05-24T07:26:54;76456.01;;;-216.11;100.00
50322;BME280;36227;53.366;-1.426;2023-05-24T07:29:19;76542.06;;;-216.35;100.00
50322;BME280;36227;53.366;-1.426;2023-05-24T07:31:44;76456.52;;;-216.11;100.00
50322;BME280;36227;53.366;-1.426;2023-05-24T07:34:09;76387.40;;;-216.11;100.00
50322;BME280;36227;53.366;-1.426;2023-05-24T07:36:34;76439.71;;;-215.87;100.00
50322;BME280;36227;53.366;-1.426;2023-05-24T07:38:59;76492.78;;;-215.87;100.00
50322;BME280;36227;53.366;-1.426;2023-05-24T07:41:25;76422.27;;;-215.87;100.00
50322;BME280;36227;53.366;-1.426;2023-05-24T07:43:50;76408.00;;;-215.87;100.00
50322;BME280;36227;53.366;-1.426;2023-05-24T07:46:15;76434.28;;;-215.87;100.00
50322;BME280;36227;53.366;-1.426;2023-05-24T07:48:40;76422.78;;;-215.87;100.00
50322;BME280;36227;53.366;-1.426;2023-05-24T07:51:06;76411.03;;;-216.11;100.00
50322;BME280;36227;53.366;-1.426;2023-05-24T07:53:30;76435.79;;;-216.35;100.00
50322;BME280;36227;53.366;-1.426;2023-05-24T07:55:56;76459.80;;;-215.87;100.00
50322;BME280;36227;53.366;-1.426;2023-05-24T07:58:21;76397.76;;;-215.87;100.00
50322;BME280;36227;53.366;-1.426;2023-05-24T08:00:46;76437.69;;;-215.87;100.00
50322;BME280;36227;53.366;-1.426;2023-05-24T08:03:12;76389.17;;;-216.11;100.00
50322;BME280;36227;53.366;-1.426;2023-05-24T08:05:37;76392.33;;;-215.87;100.00
50322;BME280;36227;53.366;-1.426;2023-05-24T08:08:02;76411.91;;;-215.87;100.00
50322;BME280;36227;53.366;-1.426;2023-05-24T08:10:28;76324.73;;;-216.11;100.00
50322;BME280;36227;53.366;-1.426;2023-05-24T08:12:53;76352.78;;;-216.11;100.00
50322;BME280;36227;53.366;-1.426;2023-05-24T08:15:19;76409.01;;;-216.59;100.00
50322;BME280;36227;53.366;-1.426;2023-05-24T08:17:43;76378.18;;;-216.35;100.00
50322;BME280;36227;53.366;-1.426;2023-05-24T08:20:10;76399.66;;;-215.87;100.00
50322;BME280;36227;53.366;-1.426;2023-05-24T08:22:34;76383.48;;;-216.11;100.00
50322;BME280;36227;53.366;-1.426;2023-05-24T08:24:59;76378.93;;;-216.11;100.00
50322;BME280;36227;53.366;-1.426;2023-05-24T08:27:24;76393.46;;;-215.87;96.54
50322;BME280;36227;53.366;-1.426;2023-05-24T08:29:49;76362.89;;;-215.87;92.69
50322;BME280;36227;53.366;-1.426;2023-05-24T08:32:15;76333.45;;;-216.11;90.20
50322;BME280;36227;53.366;-1.426;2023-05-24T08:34:40;76355.43;;;-215.87;93.94
50322;BME280;36227;53.366;-1.426;2023-05-24T08:37:06;76354.67;;;-216.11;95.30
50322;BME280;36227;53.366;-1.426;2023-05-24T08:39:31;76365.29;;;-216.83;98.97
50322;BME280;36227;53.366;-1.426;2023-05-24T08:41:57;76323.47;;;-216.35;94.12
50322;BME280;36227;53.366;-1.426;2023-05-24T08:44:22;76342.17;;;-216.11;96.54
50322;BME280;36227;53.366;-1.426;2023-05-24T08:46:47;76371.48;;;-216.11;98.24
50322;BME280;36227;53.366;-1.426;2023-05-24T08:49:12;76225.29;;;-216.35;94.23
50322;BME280;36227;53.366;-1.426;2023-05-24T08:51:38;76259.15;;;-216.35;96.60
50322;BME280;36227;53.366;-1.426;2023-05-24T08:54:04;76181.32;;;-216.83;91.38
50322;BME280;36227;53.366;-1.426;2023-05-24T08:56:29;76197.62;;;-216.35;82.92
50322;BME280;36227;53.366;-1.426;2023-05-24T08:58:54;76208.74;;;-216.35;75.55
50322;BME280;36227;53.366;-1.426;2023-05-24T09:01:20;76247.66;;;-216.83;74.84
50322;BME280;36227;53.366;-1.426;2023-05-24T09:03:46;76233.50;;;-216.83;74.62
50322;BME280;36227;53.366;-1.426;2023-05-24T09:06:10;76312.35;;;-216.35;79.37
50322;BME280;36227;53.366;-1.426;2023-05-24T09:08:36;76220.11;;;-216.35;75.51
50322;BME280;36227;53.366;-1.426;2023-05-24T09:11:00;76219.73;;;-216.35;77.90
50322;BME280;36227;53.366;-1.426;2023-05-24T09:13:26;76228.58;;;-216.35;73.50
50322;BME280;36227;53.366;-1.426;2023-05-24T09:15:52;76194.97;;;-216.35;78.66
50322;BME280;36227;53.366;-1.426;2023-05-24T09:18:16;76136.34;;;-216.83;73.61
50322;BME280;36227;53.366;-1.426;2023-05-24T09:20:41;76150.87;;;-216.83;74.42
50322;BME280;36227;53.366;-1.426;2023-05-24T09:23:06;76217.33;;;-216.35;75.98
50322;BME280;36227;53.366;-1.426;2023-05-24T09:25:31;76055.99;;;-217.54;71.25
50322;BME280;36227;53.366;-1.426;2023-05-24T09:27:56;76082.90;;;-217.30;63.91
50322;BME280;36227;53.366;-1.426;2023-05-24T09:30:21;76031.86;;;-217.30;60.86
50322;BME280;36227;53.366;-1.426;2023-05-24T09:32:56;76189.28;;;-216.35;69.74
50322;BME280;36227;53.366;-1.426;2023-05-24T09:35:11;76055.11;;;-217.07;71.28
50322;BME280;36227;53.366;-1.426;2023-05-24T09:37:37;76121.18;;;-216.83;61.87
50322;BME280;36227;53.366;-1.426;2023-05-24T09:40:02;76091.11;;;-216.83;61.80
50322;BME280;36227;53.366;-1.426;2023-05-24T09:42:27;76106.15;;;-216.59;62.83
50322;BME280;36227;53.366;-1.426;2023-05-24T09:44:59;76074.94;;;-216.83;61.49
50322;BME280;36227;53.366;-1.426;2023-05-24T09:47:17;76049.17;;;-217.07;59.46
50322;BME280;36227;53.366;-1.426;2023-05-24T09:49:43;76109.31;;;-217.30;65.32
50322;BME280;36227;53.366;-1.426;2023-05-24T09:52:08;76060.66;;;-217.30;63.98
50322;BME280;36227;53.366;-1.426;2023-05-24T09:54:33;76069.51;;;-216.83;66.42
50322;BME280;36227;53.366;-1.426;2023-05-24T09:56:59;76049.93;;;-216.83;66.75
50322;BME280;36227;53.366;-1.426;2023-05-24T09:59:24;76052.45;;;-216.83;65.68
50322;BME280;36227;53.366;-1.426;2023-05-24T10:01:49;76082.65;;;-216.59;57.25
50322;BME280;36227;53.366;-1.426;2023-05-24T10:04:15;76100.97;;;-216.35;65.40
50322;BME280;36227;53.366;-1.426;2023-05-24T10:06:41;76053.21;;;-216.83;69.94
50322;BME280;36227;53.366;-1.426;2023-05-24T10:09:05;75972.86;;;-217.07;68.47
50322;BME280;36227;53.366;-1.426;2023-05-24T10:11:31;75999.77;;;-217.30;67.57
50322;BME280;36227;53.366;-1.426;2023-05-24T10:13:56;75993.83;;;-217.78;63.74
50322;BME280;36227;53.366;-1.426;2023-05-24T10:16:21;76014.17;;;-217.07;62.67
50322;BME280;36227;53.366;-1.426;2023-05-24T10:18:46;76038.68;;;-217.07;66.76
50322;BME280;36227;53.366;-1.426;2023-05-24T10:21:11;76004.95;;;-216.83;66.22
50322;BME280;36227;53.366;-1.426;2023-05-24T10:23:38;75992.19;;;-217.07;70.46
50322;BME280;36227;53.366;-1.426;2023-05-24T10:26:04;75946.96;;;-217.30;70.56
50322;BME280;36227;53.366;-1.426;2023-05-24T10:28:26;75911.96;;;-217.30;69.50
50322;BME280;36227;53.366;-1.426;2023-05-24T10:31:01;75923.46;;;-217.30;71.00
50322;BME280;36227;53.366;-1.426;2023-05-24T10:33:18;75970.96;;;-217.30;69.91
50322;BME280;36227;53.366;-1.426;2023-05-24T10:35:43;75991.43;;;-217.30;67.80
50322;BME280;36227;53.366;-1.426;2023-05-24T10:38:08;75998.63;;;-217.78;68.81
50322;BME280;36227;53.366;-1.426;2023-05-24T10:40:33;75944.56;;;-217.30;69.95
50322;BME280;36227;53.366;-1.426;2023-05-24T10:42:58;75956.18;;;-217.30;63.01
50322;BME280;36227;53.366;-1.426;2023-05-24T10:45:32;75992.57;;;-217.07;62.76
50322;BME280;36227;53.366;-1.426;2023-05-24T10:47:49;75990.92;;;-216.83;66.65
50322;BME280;36227;53.366;-1.426;2023-05-24T10:50:16;75902.36;;;-217.30;69.41
50322;BME280;36227;53.366;-1.426;2023-05-24T10:52:39;75947.46;;;-217.07;70.03
50322;BME280;36227;53.366;-1.426;2023-05-24T10:55:05;75936.22;;;-217.07;68.92
50322;BME280;36227;53.366;-1.426;2023-05-24T10:57:29;75896.93;;;-217.30;66.34
50322;BME280;36227;53.366;-1.426;2023-05-24T10:59:56;75934.32;;;-218.02;68.88
50322;BME280;36227;53.366;-1.426;2023-05-24T11:02:20;75860.42;;;-217.78;71.90
50322;BME280;36227;53.366;-1.426;2023-05-24T11:04:46;75885.18;;;-217.78;72.34
50322;BME280;36227;53.366;-1.426;2023-05-24T11:07:14;75874.31;;;-217.30;70.16
50322;BME280;36227;53.366;-1.426;2023-05-24T11:09:38;75902.11;;;-217.30;69.99
50322;BME280;36227;53.366;-1.426;2023-05-24T11:12:06;75891.37;;;-217.30;65.61
50322;BME280;36227;53.366;-1.426;2023-05-24T11:14:29;75846.14;;;-217.30;68.05
50322;BME280;36227;53.366;-1.426;2023-05-24T11:16:52;75921.94;;;-217.30;71.22
50322;BME280;36227;53.366;-1.426;2023-05-24T11:19:19;75851.95;;;-217.30;70.98
50322;BME280;36227;53.366;-1.426;2023-05-24T11:21:45;75853.97;;;-217.78;69.85
50322;BME280;36227;53.366;-1.426;2023-05-24T11:24:09;75927.38;;;-217.78;71.85
50322;BME280;36227;53.366;-1.426;2023-05-24T11:26:34;75879.11;;;-217.78;72.74
50322;BME280;36227;53.366;-1.426;2023-05-24T11:29:00;75826.43;;;-217.78;71.96
50322;BME280;36227;53.366;-1.426;2023-05-24T11:31:26;75864.08;;;-217.30;71.60
50322;BME280;36227;53.366;-1.426;2023-05-24T11:33:50;75842.10;;;-217.78;70.61
50322;BME280;36227;53.366;-1.426;2023-05-24T11:36:15;75836.67;;;-217.30;68.71
50322;BME280;36227;53.366;-1.426;2023-05-24T11:38:40;75773.50;;;-217.78;66.30
50322;BME280;36227;53.366;-1.426;2023-05-24T11:41:06;75722.08;;;-218.02;64.45
50322;BME280;36227;53.366;-1.426;2023-05-24T11:43:31;75698.84;;;-218.02;64.04
50322;BME280;36227;53.366;-1.426;2023-05-24T11:45:57;75719.18;;;-218.74;66.36
50322;BME280;36227;53.366;-1.426;2023-05-24T11:48:22;75731.93;;;-218.50;66.66
50322;BME280;36227;53.366;-1.426;2023-05-24T11:50:48;75726.63;;;-218.02;66.02
50322;BME280;36227;53.366;-1.426;2023-05-24T11:53:15;75890.86;;;-217.30;69.52
50322;BME280;36227;53.366;-1.426;2023-05-24T11:55:39;75742.67;;;-217.78;66.96
50322;BME280;36227;53.366;-1.426;2023-05-24T11:58:06;75693.02;;;-218.26;65.38
50322;BME280;36227;53.366;-1.426;2023-05-24T12:00:29;75750.00;;;-217.78;63.39
50322;BME280;36227;53.366;-1.426;2023-05-24T12:02:56;75695.42;;;-218.02;62.82
50322;BME280;36227;53.366;-1.426;2023-05-24T12:05:21;75705.15;;;-217.78;63.85
50322;BME280;36227;53.366;-1.426;2023-05-24T12:07:46;75653.23;;;-218.26;62.59
50322;BME280;36227;53.366;-1.426;2023-05-24T12:10:12;75767.18;;;-218.26;65.51
50322;BME280;36227;53.366;-1.426;2023-05-24T12:12:42;75759.98;;;-218.02;65.42
50322;BME280;36227;53.366;-1.426;2023-05-24T12:15:01;75746.46;;;-218.26;65.05
50322;BME280;36227;53.366;-1.426;2023-05-24T12:17:26;75859.91;;;-217.30;67.70
50322;BME280;36227;53.366;-1.426;2023-05-24T12:19:52;75824.54;;;-217.78;69.15
50322;BME280;36227;53.366;-1.426;2023-05-24T12:22:18;75733.45;;;-218.02;69.40
50322;BME280;36227;53.366;-1.426;2023-05-24T12:24:43;75821.76;;;-217.78;70.48
50322;BME280;36227;53.366;-1.426;2023-05-24T12:27:10;75845.64;;;-217.78;73.59
50322;BME280;36227;53.366;-1.426;2023-05-24T12:29:35;75798.76;;;-217.78;77.19
50322;BME280;36227;53.366;-1.426;2023-05-24T12:32:00;75903.75;;;-217.78;79.60
50322;BME280;36227;53.366;-1.426;2023-05-24T12:34:25;75859.28;;;-217.78;80.75
50322;BME280;36227;53.366;-1.426;2023-05-24T12:36:50;75763.64;;;-217.78;77.02
50322;BME280;36227;53.366;-1.426;2023-05-24T12:39:17;75845.38;;;-217.78;76.73
50322;BME280;36227;53.366;-1.426;2023-05-24T12:41:40;75824.92;;;-217.78;75.10
50322;BME280;36227;53.366;-1.426;2023-05-24T12:44:05;75865.98;;;-217.30;78.42
50322;BME280;36227;53.366;-1.426;2023-05-24T12:46:31;75846.27;;;-217.78;80.09
50322;BME280;36227;53.366;-1.426;2023-05-24T12:48:56;75921.06;;;-217.30;79.85
50322;BME280;36227;53.366;-1.426;2023-05-24T12:51:21;75936.98;;;-217.30;80.90
50322;BME280;36227;53.366;-1.426;2023-05-24T12:53:48;75897.18;;;-217.78;76.36
50322;BME280;36227;53.366;-1.426;2023-05-24T12:56:13;75924.09;;;-218.02;77.76
50322;BME280;36227;53.366;-1.426;2023-05-24T12:58:38;75878.23;;;-217.30;79.51
50322;BME280;36227;53.366;-1.426;2023-05-24T13:01:03;75815.82;;;-217.54;76.70
50322;BME280;36227;53.366;-1.426;2023-05-24T13:03:29;75827.19;;;-217.78;78.13
50322;BME280;36227;53.366;-1.426;2023-05-24T13:05:54;75861.30;;;-217.30;81.72
50322;BME280;36227;53.366;-1.426;2023-05-24T13:08:19;75883.41;;;-217.30;83.01
50322;BME280;36227;53.366;-1.426;2023-05-24T13:10:44;75858.90;;;-217.30;84.33
50322;BME280;36227;53.366;-1.426;2023-05-24T13:13:09;75774.00;;;-217.78;78.71
50322;BME280;36227;53.366;-1.426;2023-05-24T13:15:35;75764.53;;;-217.78;73.99
50322;BME280;36227;53.366;-1.426;2023-05-24T13:18:01;75808.49;;;-218.26;77.20
50322;BME280;36227;53.366;-1.426;2023-05-24T13:20:26;75758.72;;;-218.26;73.00
50322;BME280;36227;53.366;-1.426;2023-05-24T13:22:52;75755.94;;;-218.02;73.83
50322;BME280;36227;53.366;-1.426;2023-05-24T13:25:17;75741.79;;;-217.78;74.53
50322;BME280;36227;53.366;-1.426;2023-05-24T13:27:42;75767.81;;;-218.02;72.60
50322;BME280;36227;53.366;-1.426;2023-05-24T13:30:08;75708.44;;;-218.02;69.84
50322;BME280;36227;53.366;-1.426;2023-05-24T13:32:33;75752.27;;;-218.02;68.25
50322;BME280;36227;53.366;-1.426;2023-05-24T13:34:58;75841.85;;;-218.02;72.33
50322;BME280;36227;53.366;-1.426;2023-05-24T13:37:24;75644.39;;;-218.02;68.24
50322;BME280;36227;53.366;-1.426;2023-05-24T13:39:49;75815.82;;;-218.02;73.89
50322;BME280;36227;53.366;-1.426;2023-05-24T13:42:14;75675.59;;;-218.74;70.73
50322;BME280;36227;53.366;-1.426;2023-05-24T13:44:39;75676.10;;;-218.74;70.00
50322;BME280;36227;53.366;-1.426;2023-05-24T13:47:04;75693.02;;;-218.26;67.46
50322;BME280;36227;53.366;-1.426;2023-05-24T13:49:30;75594.87;;;-218.50;67.55
50322;BME280;36227;53.366;-1.426;2023-05-24T13:51:55;75730.67;;;-218.02;68.11
50322;BME280;36227;53.366;-1.426;2023-05-24T13:54:21;75623.04;;;-218.50;63.30
50322;BME280;36227;53.366;-1.426;2023-05-24T13:56:46;75699.09;;;-218.26;63.33
50322;BME280;36227;53.366;-1.426;2023-05-24T13:59:11;75635.17;;;-218.02;65.65
50322;BME280;36227;53.366;-1.426;2023-05-24T14:01:36;75563.79;;;-218.26;62.06
50322;BME280;36227;53.366;-1.426;2023-05-24T14:04:03;75689.74;;;-218.74;62.06